createdAt,value
2023-05-09T00:00:46.619Z,75.60
2023-05-09T00:03:14.408Z,75.36
2023-05-09T00:05:42.023Z,76.33
2023-05-09T00:08:09.397Z,76.04
2023-05-09T00:10:36.333Z,75.87
2023-05-09T00:13:03.307Z,75.87
2023-05-09T00:15:30.599Z,76.09
2023-05-09T00:17:57.617Z,75.20
2023-05-09T00:20:24.547Z,74.00
2023-05-09T00:22:51.683Z,74.30
2023-05-09T00:25:18.546Z,74.74
2023-05-09T00:27:45.420Z,73.72
2023-05-09T00:30:12.538Z,73.05
2023-05-09T00:32:41.415Z,73.67
2023-05-09T00:35:10.188Z,73.48
2023-05-09T00:37:37.233Z,73.84
2023-05-09T00:40:06.346Z,75.51
2023-05-09T00:42:33.641Z,75.57
2023-05-09T00:45:00.603Z,75.80
2023-05-09T00:47:28.981Z,75.13
2023-05-09T00:49:58.209Z,76.36
2023-05-09T00:52:26.219Z,74.93
2023-05-09T00:54:54.520Z,72.68
2023-05-09T00:57:22.738Z,71.62
2023-05-09T00:59:50.264Z,69.89
2023-05-09T01:02:18.410Z,69.86
2023-05-09T01:04:46.347Z,70.31
2023-05-09T01:07:52.688Z,68.78
2023-05-09T01:10:31.743Z,70.26
2023-05-09T01:13:26.164Z,70.21
2023-05-09T01:16:11.372Z,70.18
2023-05-09T01:18:50.063Z,71.02
2023-05-09T01:21:21.629Z,71.40
2023-05-09T01:24:13.268Z,71.52
2023-05-09T01:27:20.803Z,71.52
2023-05-09T01:29:51.091Z,71.64
2023-05-09T01:32:23.102Z,72.14
2023-05-09T01:34:51.951Z,72.07
2023-05-09T01:37:22.346Z,72.39
2023-05-09T01:39:53.339Z,72.58
2023-05-09T01:42:21.521Z,72.35
2023-05-09T01:44:49.856Z,71.29
2023-05-09T01:47:19.830Z,71.53
2023-05-09T01:49:48.051Z,71.35
2023-05-09T01:52:17.834Z,72.07
2023-05-09T01:54:46.084Z,71.73
2023-05-09T01:57:14.533Z,71.15
2023-05-09T01:59:44.751Z,72.59
2023-05-09T02:02:12.352Z,72.09
2023-05-09T02:04:41.920Z,71.06
2023-05-09T02:07:09.650Z,71.01
2023-05-09T02:09:36.701Z,70.52
2023-05-09T02:12:05.134Z,70.47
2023-05-09T02:14:32.152Z,70.67
2023-05-09T02:17:06.593Z,71.40
2023-05-09T02:19:35.406Z,71.75
2023-05-09T02:22:04.953Z,72.67
2023-05-09T02:24:34.364Z,72.54
2023-05-09T02:27:02.903Z,71.22
2023-05-09T02:29:44.497Z,71.91
2023-05-09T02:32:15.470Z,72.88
2023-05-09T02:34:43.956Z,71.93
2023-05-09T02:37:11.656Z,73.21
2023-05-09T02:39:38.740Z,73.15
2023-05-09T02:42:08.447Z,72.08
2023-05-09T02:44:35.424Z,72.83
2023-05-09T02:47:03.698Z,72.31
2023-05-09T02:49:32.725Z,72.30
2023-05-09T02:52:01.686Z,72.95
2023-05-09T02:54:28.718Z,72.27
2023-05-09T02:56:55.778Z,74.02
2023-05-09T02:59:22.789Z,73.91
2023-05-09T03:01:50.321Z,75.34
2023-05-09T03:04:18.216Z,76.03
2023-05-09T03:06:45.169Z,77.16
2023-05-09T03:09:13.051Z,76.49
2023-05-09T03:11:39.907Z,77.35
2023-05-09T03:14:08.528Z,77.68
2023-05-09T03:16:35.667Z,77.30
2023-05-09T03:19:03.947Z,77.68
2023-05-09T03:21:32.162Z,78.31
2023-05-09T03:23:59.540Z,77.85
2023-05-09T03:26:26.646Z,78.99
2023-05-09T03:28:54.720Z,78.36
2023-05-09T03:31:21.718Z,78.42
2023-05-09T03:33:48.610Z,78.96
2023-05-09T03:36:16.454Z,78.06
2023-05-09T03:38:44.368Z,78.27
2023-05-09T03:41:13.258Z,78.44
2023-05-09T03:43:40.255Z,78.09
2023-05-09T03:46:07.118Z,78.24
2023-05-09T03:48:35.260Z,78.39
2023-05-09T03:51:02.956Z,78.15
2023-05-09T03:53:32.466Z,77.97
2023-05-09T03:55:59.343Z,77.85
2023-05-09T03:58:27.590Z,77.27
2023-05-09T04:00:55.504Z,76.85
2023-05-09T04:03:24.977Z,76.47
2023-05-09T04:05:54.094Z,76.26
2023-05-09T04:08:35.009Z,76.29
2023-05-09T04:11:04.011Z,76.26
2023-05-09T04:13:31.902Z,74.95
2023-05-09T04:16:02.046Z,75.58
2023-05-09T04:18:32.084Z,74.79
2023-05-09T04:20:58.910Z,75.84
2023-05-09T04:23:26.689Z,74.95
2023-05-09T04:25:57.030Z,75.39
2023-05-09T04:28:24.862Z,76.92
2023-05-09T04:30:52.348Z,75.38
2023-05-09T04:33:21.377Z,75.33
2023-05-09T04:35:49.536Z,74.71
2023-05-09T04:38:16.777Z,75.85
2023-05-09T04:40:45.072Z,75.89
2023-05-09T04:43:12.074Z,75.87
2023-05-09T04:45:38.955Z,73.98
2023-05-09T04:48:06.706Z,74.07
2023-05-09T04:50:33.664Z,74.90
2023-05-09T04:53:00.614Z,74.31
2023-05-09T04:55:27.535Z,74.84
2023-05-09T04:57:55.747Z,75.82
2023-05-09T05:00:22.915Z,76.39
2023-05-09T05:02:49.898Z,75.52
2023-05-09T05:05:17.692Z,75.18
2023-05-09T05:07:44.861Z,75.85
2023-05-09T05:10:18.320Z,75.12
2023-05-09T05:12:49.604Z,75.16
2023-05-09T05:15:17.693Z,74.73
2023-05-09T05:17:46.267Z,74.50
2023-05-09T05:20:13.642Z,75.19
2023-05-09T05:22:44.676Z,75.13
2023-05-09T05:25:12.510Z,75.67
2023-05-09T05:27:41.015Z,75.87
2023-05-09T05:30:10.645Z,74.91
2023-05-09T05:32:37.631Z,74.75
2023-05-09T05:35:05.106Z,73.85
2023-05-09T05:37:35.487Z,73.61
2023-05-09T05:40:02.953Z,73.81
2023-05-09T05:42:30.837Z,74.46
2023-05-09T05:44:58.080Z,75.29
2023-05-09T05:47:25.153Z,73.96
2023-05-09T05:49:52.545Z,73.97
2023-05-09T05:52:19.992Z,74.90
2023-05-09T05:54:46.796Z,74.82
2023-05-09T05:57:13.749Z,74.71
2023-05-09T05:59:40.695Z,75.17
2023-05-09T06:02:08.162Z,75.08
2023-05-09T06:04:35.470Z,75.20
2023-05-09T06:07:02.393Z,75.54
2023-05-09T06:09:29.240Z,74.58
2023-05-09T06:11:56.085Z,73.30
2023-05-09T06:14:22.957Z,73.89
2023-05-09T06:16:50.065Z,72.65
2023-05-09T06:19:16.986Z,74.25
2023-05-09T06:21:44.141Z,73.79
2023-05-09T06:24:16.936Z,73.08
2023-05-09T06:26:51.020Z,72.69
2023-05-09T06:29:17.834Z,72.26
2023-05-09T06:31:44.694Z,72.51
2023-05-09T06:34:11.558Z,73.27
2023-05-09T06:36:38.416Z,73.26
2023-05-09T06:39:05.308Z,74.29
2023-05-09T06:41:32.174Z,74.36
2023-05-09T06:43:59.095Z,74.71
2023-05-09T06:46:26.464Z,73.47
2023-05-09T06:48:53.405Z,73.58
2023-05-09T06:51:20.436Z,72.49
2023-05-09T06:53:47.237Z,71.98
2023-05-09T06:56:14.231Z,72.02
2023-05-09T06:58:41.118Z,72.29
2023-05-09T07:01:08.140Z,70.33
2023-05-09T07:03:35.028Z,71.65
2023-05-09T07:06:01.868Z,71.59
2023-05-09T07:08:28.951Z,72.14
2023-05-09T07:10:55.997Z,71.53
2023-05-09T07:13:23.078Z,72.15
2023-05-09T07:15:50.113Z,72.16
2023-05-09T07:18:16.927Z,72.69
2023-05-09T07:20:43.833Z,73.20
2023-05-09T07:23:10.689Z,73.03
2023-05-09T07:25:37.578Z,73.96
2023-05-09T07:28:04.726Z,73.60
2023-05-09T07:30:31.737Z,73.58
2023-05-09T07:32:58.567Z,72.38
2023-05-09T07:35:26.540Z,73.76
2023-05-09T07:37:53.469Z,73.79
2023-05-09T07:40:20.527Z,73.32
2023-05-09T07:42:50.089Z,73.81
2023-05-09T07:45:18.696Z,74.26
2023-05-09T07:47:46.242Z,74.03
2023-05-09T07:50:13.137Z,74.56
2023-05-09T07:52:39.975Z,73.84
2023-05-09T07:55:07.587Z,74.27
2023-05-09T07:57:34.479Z,74.66
2023-05-09T08:00:01.230Z,74.18
2023-05-09T08:02:28.156Z,73.58
2023-05-09T08:04:54.962Z,74.08
2023-05-09T08:07:21.825Z,72.99
2023-05-09T08:09:48.636Z,73.51
2023-05-09T08:12:15.597Z,74.00
2023-05-09T08:14:42.426Z,73.65
2023-05-09T08:17:09.426Z,74.16
2023-05-09T08:19:36.233Z,73.13
2023-05-09T08:22:03.275Z,71.49
2023-05-09T08:24:30.710Z,72.58
2023-05-09T08:26:57.565Z,70.46
2023-05-09T08:29:24.417Z,69.95
2023-05-09T08:31:51.650Z,70.96
2023-05-09T08:34:18.509Z,69.17
2023-05-09T08:36:47.044Z,69.76
2023-05-09T08:39:14.152Z,70.35
2023-05-09T08:41:42.486Z,70.01
2023-05-09T08:44:10.166Z,68.80
2023-05-09T08:46:39.812Z,67.01
2023-05-09T08:49:07.435Z,66.36
2023-05-09T08:51:36.096Z,66.04
2023-05-09T08:54:03.613Z,67.01
2023-05-09T08:56:31.914Z,66.82
2023-05-09T08:58:59.253Z,65.58
2023-05-09T09:01:29.094Z,64.87
2023-05-09T09:03:56.497Z,63.09
2023-05-09T09:06:25.879Z,64.23
2023-05-09T09:08:55.985Z,64.10
2023-05-09T09:11:23.261Z,65.14
2023-05-09T09:13:54.344Z,65.48
2023-05-09T09:16:23.353Z,63.76
2023-05-09T09:18:55.435Z,63.51
2023-05-09T09:21:23.712Z,63.12
2023-05-09T09:23:52.682Z,64.28
2023-05-09T09:26:19.468Z,65.44
2023-05-09T09:28:46.326Z,63.78
2023-05-09T09:31:28.534Z,64.73
2023-05-09T09:34:02.273Z,63.12
2023-05-09T09:36:30.625Z,63.69
2023-05-09T09:39:04.813Z,65.83
2023-05-09T09:41:39.097Z,64.78
2023-05-09T09:44:19.226Z,65.78
2023-05-09T09:46:54.525Z,66.20
2023-05-09T09:49:24.173Z,65.84
2023-05-09T09:51:56.314Z,63.06
2023-05-09T09:54:26.272Z,63.26
2023-05-09T09:56:54.759Z,64.10
2023-05-09T09:59:25.011Z,62.15
2023-05-09T10:02:05.926Z,62.34
2023-05-09T10:04:37.294Z,62.85
2023-05-09T10:07:06.453Z,62.70
2023-05-09T10:09:35.327Z,61.29
2023-05-09T10:12:04.859Z,60.98
2023-05-09T10:14:35.546Z,61.12
2023-05-09T10:17:05.081Z,59.47
2023-05-09T10:19:33.373Z,59.27
2023-05-09T10:22:06.068Z,58.42
2023-05-09T10:24:44.925Z,57.97
2023-05-09T10:27:13.049Z,57.76
2023-05-09T10:29:56.343Z,58.23
2023-05-09T10:32:38.696Z,58.55
2023-05-09T10:35:08.429Z,56.09
2023-05-09T10:37:35.814Z,57.59
2023-05-09T10:40:04.440Z,57.04
2023-05-09T10:42:31.939Z,59.32
2023-05-09T10:44:58.898Z,59.81
2023-05-09T10:47:28.098Z,58.59
2023-05-09T10:49:55.461Z,58.91
2023-05-09T10:52:22.965Z,58.68
2023-05-09T10:55:04.357Z,58.46
2023-05-09T10:57:32.226Z,55.64
2023-05-09T11:00:00.612Z,56.81
2023-05-09T11:02:32.507Z,56.98
2023-05-09T11:05:15.068Z,58.73
2023-05-09T11:07:43.417Z,58.57
2023-05-09T11:10:18.165Z,59.17
2023-05-09T11:12:59.175Z,56.93
2023-05-09T11:15:27.923Z,57.27
2023-05-09T11:18:10.175Z,56.97
2023-05-09T11:20:44.239Z,56.21
2023-05-09T11:23:17.412Z,57.44
2023-05-09T11:25:46.857Z,54.92
2023-05-09T11:28:30.636Z,54.06
2023-05-09T11:31:12.839Z,54.73
2023-05-09T11:33:40.831Z,55.09
2023-05-09T11:36:25.191Z,57.68
2023-05-09T11:39:08.379Z,55.86
2023-05-09T11:41:46.877Z,56.19
2023-05-09T11:44:21.179Z,55.76
2023-05-09T11:46:49.444Z,57.40
2023-05-09T11:49:17.263Z,58.38
2023-05-09T11:51:44.202Z,58.99
2023-05-09T11:54:12.314Z,58.43
2023-05-09T11:56:41.638Z,58.76
2023-05-09T11:59:08.705Z,56.44
2023-05-09T12:01:36.804Z,57.62
2023-05-09T12:04:07.936Z,57.19
2023-05-09T12:06:34.882Z,56.85
2023-05-09T12:09:01.820Z,55.71
2023-05-09T12:11:32.518Z,57.77
2023-05-09T12:13:59.426Z,55.40
2023-05-09T12:16:26.462Z,55.51
2023-05-09T12:18:54.941Z,53.76
2023-05-09T12:21:22.467Z,55.15
2023-05-09T12:23:51.798Z,54.06
2023-05-09T12:26:22.208Z,55.26
2023-05-09T12:28:49.357Z,53.45
2023-05-09T12:31:17.243Z,55.55
2023-05-09T12:33:44.257Z,58.17
2023-05-09T12:36:12.586Z,60.27
2023-05-09T12:38:39.637Z,61.93
2023-05-09T12:41:29.917Z,62.44
2023-05-09T12:43:57.980Z,62.95
2023-05-09T12:46:25.114Z,63.42
2023-05-09T12:48:52.625Z,63.61
2023-05-09T12:51:20.977Z,65.11
2023-05-09T12:53:48.572Z,64.75
2023-05-09T12:56:18.628Z,63.41
2023-05-09T12:58:56.173Z,63.60
2023-05-09T13:01:31.929Z,62.93
2023-05-09T13:04:04.157Z,64.40
2023-05-09T13:06:31.074Z,64.56
2023-05-09T13:09:00.440Z,63.84
2023-05-09T13:11:28.064Z,63.78
2023-05-09T13:13:55.817Z,65.05
2023-05-09T13:16:22.868Z,65.22
2023-05-09T13:18:49.707Z,64.81
2023-05-09T13:21:16.508Z,64.13
2023-05-09T13:23:44.577Z,63.77
2023-05-09T13:26:11.567Z,64.66
2023-05-09T13:28:38.409Z,63.73
2023-05-09T13:31:05.357Z,64.90
2023-05-09T13:33:32.372Z,65.05
2023-05-09T13:35:59.272Z,65.01
2023-05-09T13:38:30.857Z,65.18
2023-05-09T13:40:58.452Z,64.22
2023-05-09T13:43:25.255Z,64.18
2023-05-09T13:45:52.115Z,65.14
2023-05-09T13:48:18.919Z,64.51
2023-05-09T13:50:46.732Z,65.09
2023-05-09T13:53:13.579Z,64.79
2023-05-09T13:55:40.373Z,65.42
2023-05-09T13:58:07.704Z,64.29
2023-05-09T14:00:34.642Z,64.39
2023-05-09T14:03:04.303Z,63.49
2023-05-09T14:05:34.824Z,62.92
2023-05-09T14:08:01.884Z,63.23
2023-05-09T14:10:29.136Z,62.83
2023-05-09T14:12:57.114Z,62.54
2023-05-09T14:15:23.994Z,61.41
2023-05-09T14:17:51.047Z,62.38
2023-05-09T14:20:18.386Z,62.07
2023-05-09T14:22:45.266Z,62.26
2023-05-09T14:25:12.572Z,62.91
2023-05-09T14:27:39.423Z,63.16
2023-05-09T14:30:06.872Z,64.00
2023-05-09T14:32:33.802Z,62.16
2023-05-09T14:35:00.827Z,63.30
2023-05-09T14:37:28.945Z,62.89
2023-05-09T14:39:55.802Z,62.99
2023-05-09T14:42:22.663Z,63.11
2023-05-09T14:44:50.053Z,62.08
2023-05-09T14:47:17.116Z,62.30
2023-05-09T14:49:44.329Z,63.42
2023-05-09T14:52:11.318Z,61.81
2023-05-09T14:54:38.182Z,60.98
2023-05-09T14:57:07.081Z,61.10
2023-05-09T14:59:36.645Z,61.06
2023-05-09T15:02:04.006Z,62.13
2023-05-09T15:04:31.424Z,61.25
2023-05-09T15:06:59.175Z,61.44
2023-05-09T15:09:26.906Z,61.55
2023-05-09T15:11:54.903Z,61.24
2023-05-09T15:14:22.131Z,60.54
2023-05-09T15:16:49.023Z,60.85
2023-05-09T15:19:15.882Z,59.44
2023-05-09T15:21:42.687Z,58.94
2023-05-09T15:24:09.589Z,59.32
2023-05-09T15:26:36.495Z,59.85
2023-05-09T15:29:03.377Z,59.59
2023-05-09T15:31:33.208Z,58.67
2023-05-09T15:34:00.981Z,59.21
2023-05-09T15:36:30.106Z,61.27
2023-05-09T15:38:57.181Z,59.30
2023-05-09T15:41:24.516Z,61.53
2023-05-09T15:43:51.946Z,61.67
2023-05-09T15:46:19.076Z,62.99
2023-05-09T15:48:46.136Z,64.72
2023-05-09T15:51:13.912Z,67.08
2023-05-09T15:53:40.872Z,67.88
2023-05-09T15:56:08.516Z,70.18
2023-05-09T15:58:35.359Z,70.40
2023-05-09T16:01:05.847Z,71.75
2023-05-09T16:03:32.891Z,71.95
2023-05-09T16:06:00.180Z,72.39
2023-05-09T16:08:27.533Z,73.59
2023-05-09T16:10:54.490Z,74.25
2023-05-09T16:13:21.508Z,73.66
2023-05-09T16:15:50.189Z,75.75
2023-05-09T16:18:17.053Z,76.59
2023-05-09T16:20:44.199Z,76.42
2023-05-09T16:23:11.677Z,76.57
2023-05-09T16:25:38.834Z,77.76
2023-05-09T16:28:07.333Z,78.52
2023-05-09T16:30:34.500Z,78.82
2023-05-09T16:33:01.426Z,78.58
2023-05-09T16:35:28.924Z,77.82
2023-05-09T16:37:55.787Z,77.38
2023-05-09T16:40:22.710Z,76.53
2023-05-09T16:42:49.752Z,77.15
2023-05-09T16:45:16.694Z,77.56
2023-05-09T16:47:43.616Z,77.63
2023-05-09T16:50:11.073Z,77.53
2023-05-09T16:52:37.901Z,78.85
2023-05-09T16:55:05.123Z,79.05
2023-05-09T16:57:31.949Z,77.93
2023-05-09T16:59:58.768Z,78.03
2023-05-09T17:02:25.710Z,78.04
2023-05-09T17:04:52.693Z,77.76
2023-05-09T17:07:20.168Z,78.47
2023-05-09T17:09:48.663Z,77.44
2023-05-09T17:12:18.118Z,77.83
2023-05-09T17:14:48.354Z,77.34
2023-05-09T17:17:15.624Z,76.84
2023-05-09T17:19:42.873Z,76.64
2023-05-09T17:22:10.144Z,75.72
2023-05-09T17:24:37.248Z,74.73
2023-05-09T17:27:04.988Z,75.49
2023-05-09T17:29:31.917Z,75.69
2023-05-09T17:32:01.940Z,75.36
2023-05-09T17:34:29.149Z,75.78
2023-05-09T17:36:56.464Z,76.38
2023-05-09T17:39:23.954Z,75.39
2023-05-09T17:41:51.172Z,75.61
2023-05-09T17:44:18.047Z,76.00
2023-05-09T17:46:45.018Z,75.45
2023-05-09T17:49:14.183Z,74.47
2023-05-09T17:51:41.440Z,75.19
2023-05-09T17:54:08.330Z,74.94
2023-05-09T17:56:35.286Z,75.00
2023-05-09T17:59:02.275Z,75.41
2023-05-09T18:01:30.038Z,74.51
2023-05-09T18:03:57.899Z,75.28
2023-05-09T18:06:26.173Z,75.71
2023-05-09T18:08:52.999Z,74.88
2023-05-09T18:11:19.864Z,74.17
2023-05-09T18:13:47.336Z,74.72
2023-05-09T18:16:14.144Z,73.04
2023-05-09T18:18:41.054Z,73.39
2023-05-09T18:21:09.629Z,73.64
2023-05-09T18:23:36.506Z,74.28
2023-05-09T18:29:20.449Z,73.05
2023-05-09T18:31:47.309Z,73.16
2023-05-09T18:34:14.280Z,72.94
2023-05-09T18:36:41.235Z,72.88
2023-05-09T18:39:09.033Z,73.19
2023-05-09T18:41:36.087Z,72.87
2023-05-09T18:44:04.163Z,73.80
2023-05-09T18:46:33.713Z,73.47
2023-05-09T18:49:01.193Z,73.63
2023-05-09T18:51:28.039Z,74.47
2023-05-09T18:53:54.935Z,73.28
2023-05-09T18:56:22.249Z,73.30
2023-05-09T18:58:52.139Z,73.20
2023-05-09T19:01:19.505Z,73.72
2023-05-09T19:03:53.569Z,73.48
2023-05-09T19:06:20.783Z,74.11
2023-05-09T19:08:48.217Z,74.18
2023-05-09T19:11:15.110Z,73.95
2023-05-09T19:13:48.639Z,74.91
2023-05-09T19:16:17.276Z,75.43
2023-05-09T19:18:44.233Z,74.92
2023-05-09T19:21:11.156Z,75.45
2023-05-09T19:23:38.295Z,75.20
2023-05-09T19:26:05.108Z,74.94
2023-05-09T19:28:31.980Z,74.92
2023-05-09T19:30:59.136Z,74.90
2023-05-09T19:33:25.987Z,74.69
2023-05-09T19:35:52.791Z,74.62
2023-05-09T19:38:19.549Z,74.75
2023-05-09T19:40:46.470Z,74.59
2023-05-09T19:43:13.249Z,74.57
2023-05-09T19:45:40.085Z,75.04
2023-05-09T19:48:07.219Z,74.59
2023-05-09T19:50:34.063Z,75.53
2023-05-09T19:53:01.197Z,75.40
2023-05-09T19:55:28.058Z,75.79
2023-05-09T19:57:55.248Z,76.55
2023-05-09T20:00:22.236Z,76.18
2023-05-09T20:02:49.836Z,76.53
2023-05-09T20:05:16.835Z,76.62
2023-05-09T20:07:43.750Z,76.50
2023-05-09T20:10:12.981Z,76.39
2023-05-09T20:12:39.843Z,76.38
2023-05-09T20:15:08.121Z,74.84
2023-05-09T20:17:34.989Z,76.40
2023-05-09T20:20:01.941Z,77.14
2023-05-09T20:22:28.817Z,77.56
2023-05-09T20:24:55.771Z,77.85
2023-05-09T20:27:23.690Z,78.03
2023-05-09T20:29:50.650Z,76.28
2023-05-09T20:32:17.636Z,76.99
2023-05-09T20:34:44.506Z,77.32
2023-05-09T20:37:12.061Z,77.11
2023-05-09T20:39:38.908Z,77.06
2023-05-09T20:42:06.671Z,78.38
2023-05-09T20:44:33.910Z,78.70
2023-05-09T20:47:00.843Z,78.22
2023-05-09T20:49:27.629Z,78.13
2023-05-09T20:51:55.362Z,78.33
2023-05-09T20:54:24.119Z,78.50
2023-05-09T20:56:51.066Z,78.76
2023-05-09T20:59:18.281Z,78.50
2023-05-09T21:01:45.141Z,79.15
2023-05-09T21:04:11.929Z,78.46
2023-05-09T21:06:38.777Z,78.68
2023-05-09T21:09:06.316Z,77.82
2023-05-09T21:11:33.275Z,77.72
2023-05-09T21:14:00.160Z,77.98
2023-05-09T21:16:28.242Z,77.79
2023-05-09T21:18:55.137Z,78.34
2023-05-09T21:21:22.436Z,76.73
2023-05-09T21:23:49.309Z,76.82
2023-05-09T21:26:16.634Z,76.87
2023-05-09T21:28:43.549Z,76.41
2023-05-09T21:31:11.459Z,76.38
2023-05-09T21:33:38.516Z,76.68
2023-05-09T21:36:06.267Z,76.11
2023-05-09T21:38:33.091Z,75.85
2023-05-09T21:40:59.978Z,76.15
2023-05-09T21:43:27.586Z,76.61
2023-05-09T21:45:55.578Z,75.93
2023-05-09T21:48:22.530Z,75.90
2023-05-09T21:50:49.367Z,74.89
2023-05-09T21:53:16.174Z,74.65
2023-05-09T21:55:42.995Z,74.77
2023-05-09T21:58:09.807Z,73.89
2023-05-09T22:00:36.617Z,73.83
2023-05-09T22:03:03.546Z,73.15
2023-05-09T22:05:30.675Z,72.74
2023-05-09T22:07:57.499Z,73.20
2023-05-09T22:10:24.500Z,73.52
2023-05-09T22:12:51.387Z,73.21
2023-05-09T22:15:18.187Z,73.40
2023-05-09T22:17:45.093Z,73.07
2023-05-09T22:20:12.651Z,72.74
2023-05-09T22:22:39.445Z,73.44
2023-05-09T22:25:06.675Z,73.50
2023-05-09T22:27:33.496Z,73.17
2023-05-09T22:30:00.406Z,73.42
2023-05-09T22:32:27.374Z,73.52
2023-05-09T22:34:54.332Z,73.67
2023-05-09T22:37:21.743Z,73.77
2023-05-09T22:39:48.609Z,73.74
2023-05-09T22:42:16.196Z,73.49
2023-05-09T22:44:43.242Z,73.62
2023-05-09T22:47:10.384Z,74.02
2023-05-09T22:49:37.552Z,74.19
2023-05-09T22:52:04.684Z,72.72
2023-05-09T22:54:31.610Z,72.72
2023-05-09T22:56:58.552Z,73.23
2023-05-09T22:59:25.367Z,73.56
2023-05-09T23:01:53.651Z,73.26
2023-05-09T23:04:20.725Z,73.68
2023-05-09T23:06:47.629Z,74.03
2023-05-09T23:09:14.511Z,74.38
2023-05-09T23:11:41.360Z,74.27
2023-05-09T23:14:08.305Z,73.96
2023-05-09T23:16:35.475Z,74.28
2023-05-09T23:19:02.639Z,74.49
2023-05-09T23:21:29.464Z,74.69
2023-05-09T23:23:56.459Z,75.00
2023-05-09T23:26:23.330Z,74.27
2023-05-09T23:28:50.229Z,72.78
2023-05-09T23:31:17.116Z,72.43
2023-05-09T23:33:44.166Z,72.01
2023-05-09T23:36:11.319Z,72.46
2023-05-09T23:38:38.322Z,73.57
2023-05-09T23:41:05.180Z,73.37
2023-05-09T23:43:31.968Z,74.89
2023-05-09T23:45:59.419Z,74.36
2023-05-09T23:48:26.671Z,73.55
2023-05-09T23:50:53.484Z,74.09
2023-05-09T23:53:20.323Z,73.93
2023-05-09T23:55:47.105Z,73.41
2023-05-09T23:58:14.177Z,73.37
